Domov               UVHVVR             MKGP            O straneh              
ZDRAVSTVENO VARSTVO RASTLIN
  MREŽA AGROMET. POSTAJ
 ► PROGNOSTIČNA OBVESTILA
AGROMETEOROLOŠKI PODATKI -
ARSO
OBVLADOVANJE TVEGANJ ZARADI
NEUGODNIH VREMENSKIH RAZMER
  ► NARAVNE NESREČE
  ► SUŠA/MOČA
  ► NAMAKANJE
  ► ŽLED (gozdarstvo)
KARTOGRAFSKI PRIKAZI
SPLETNE POVEZAVE
PROJEKTI IN PUBLIKACIJE

AGROMETEOROLOŠKA MREŽA: VREMENSKE POSTAJE IN FENOLOŠKA OPAZOVANJA

Pregled podatkov za lokacijo Dragonja, meteorološka postaja 42389

Pregled senzorjev na lokaciji

ID Ime Zadnja
vrednost
Datum
zadnje
spremembe
Tip
senzorja
2095 Temperatura 2 m (°C) 7,55 °C 18.1.2018 20:00 50YA
2096 Relativna vlaga 2 m (% RH) 66,56 % RH 18.1.2018 20:00 50YA
2098 Padavine (mm) 0 mm 18.1.2018 20:00 Rain-O-Matic

Pregled podatkov zadnjih 24 ur

Zap.
št.
Datum in čas Dragonja
Padavine Relativna
vlaga
2
m
Temperatura
2
m
0 18.1.2018 20:00 0 66,56 7,55
1 18.1.2018 19:30 0 61,74 7,69
2 18.1.2018 19:00 0 57,01 7,7
3 18.1.2018 18:30 0 53,65 7,39
4 18.1.2018 18:00 0 57,76 6,74
5 18.1.2018 17:30 0 62,89 6,41
6 18.1.2018 17:00 0 59,49 7,53
7 18.1.2018 16:30 0 49,68 8,57
8 18.1.2018 16:00 0 42,84 9,1
9 18.1.2018 15:30 0 36,83 9,62
10 18.1.2018 15:00 0 33,59 9,62
11 18.1.2018 14:30 0 35,86 9,53
12 18.1.2018 14:00 0 37,65 9,87
13 18.1.2018 13:30 0 39,21 10,25
14 18.1.2018 13:00 0 41,09 10,18
15 18.1.2018 12:30 0 39,66 10,14
16 18.1.2018 12:00 0 45,76 9,94
17 18.1.2018 11:30 0 51,28 9,29
18 18.1.2018 11:00 0 64,41 6,96
19 18.1.2018 10:30 0 79,26 2,98
20 18.1.2018 10:00 0 82,7 0,67
21 18.1.2018 09:30 0 82,47 -0,22
22 18.1.2018 09:00 0 84,01 -1,26
23 18.1.2018 08:30 0 87,93 -2,63
24 18.1.2018 08:00 0 88,7 -3,13
25 18.1.2018 07:30 0 88,06 -2,99
26 18.1.2018 07:00 0 90,77 -3,28
27 18.1.2018 06:30 0 90,47 -3,17
28 18.1.2018 06:00 0 89,01 -2,87
29 18.1.2018 05:30 0 86,47 -2,19
30 18.1.2018 05:00 0 86,84 -2,04
31 18.1.2018 04:30 0 86,8 -1,82
32 18.1.2018 04:00 0 88,33 -1,9
33 18.1.2018 03:30 0 88,35 -1,56
34 18.1.2018 03:00 0 91,31 -1,84
35 18.1.2018 02:30 0 91,83 -1,86
36 18.1.2018 02:00 0 92,92 -1,6
37 18.1.2018 01:30 0 93,51 -1,52
38 18.1.2018 01:00 0 94,79 -1,51
39 18.1.2018 00:30 0 95,55 -1,41
40 18.1.2018 00:00 0 95,58 -1,5
41 17.1.2018 23:30 0 96,03 -0,97
42 17.1.2018 23:00 0 96,4 -1,03
43 17.1.2018 22:30 0 96,74 -0,92
44 17.1.2018 22:00 0 96,95 -1,03
45 17.1.2018 21:30 0 96,75 -0,87
46 17.1.2018 21:00 0 96,39 -0,58
© 2011 Ministrstvo za kmetijstvo, gozdarstvo in prehrano. Vse pravice pridržane.